sensor_id;sensor_type;location;lat;lon;timestamp;temperature;humidity
27114;DHT22;14648;49.730;8.614;2023-02-15T00:02:18;3.50;63.00
27114;DHT22;14648;49.730;8.614;2023-02-15T00:04:45;3.50;62.90
27114;DHT22;14648;49.730;8.614;2023-02-15T00:07:18;3.50;63.00
27114;DHT22;14648;49.730;8.614;2023-02-15T00:09:47;3.40;62.90
27114;DHT22;14648;49.730;8.614;2023-02-15T00:12:14;3.40;63.00
27114;DHT22;14648;49.730;8.614;2023-02-15T00:14:40;3.40;63.00
27114;DHT22;14648;49.730;8.614;2023-02-15T00:17:07;3.40;63.00
27114;DHT22;14648;49.730;8.614;2023-02-15T00:19:35;3.40;63.10
27114;DHT22;14648;49.730;8.614;2023-02-15T00:22:00;3.30;63.10
27114;DHT22;14648;49.730;8.614;2023-02-15T00:24:26;3.30;63.00
27114;DHT22;14648;49.730;8.614;2023-02-15T00:26:52;3.30;63.00
27114;DHT22;14648;49.730;8.614;2023-02-15T00:29:19;3.30;63.10
27114;DHT22;14648;49.730;8.614;2023-02-15T00:31:45;3.30;63.10
27114;DHT22;14648;49.730;8.614;2023-02-15T00:34:13;3.30;63.10
27114;DHT22;14648;49.730;8.614;2023-02-15T00:36:41;3.30;63.10
27114;DHT22;14648;49.730;8.614;2023-02-15T00:39:08;3.30;63.10
27114;DHT22;14648;49.730;8.614;2023-02-15T00:41:34;3.30;63.10
27114;DHT22;14648;49.730;8.614;2023-02-15T00:44:00;3.30;63.10
27114;DHT22;14648;49.730;8.614;2023-02-15T00:46:26;3.30;63.10
27114;DHT22;14648;49.730;8.614;2023-02-15T00:48:52;3.40;63.10
27114;DHT22;14648;49.730;8.614;2023-02-15T00:51:17;3.30;63.10
27114;DHT22;14648;49.730;8.614;2023-02-15T00:53:44;3.30;63.20
27114;DHT22;14648;49.730;8.614;2023-02-15T00:56:10;3.30;63.20
27114;DHT22;14648;49.730;8.614;2023-02-15T00:58:36;3.30;63.20
27114;DHT22;14648;49.730;8.614;2023-02-15T01:01:07;3.30;63.20
27114;DHT22;14648;49.730;8.614;2023-02-15T01:03:38;3.30;63.20
27114;DHT22;14648;49.730;8.614;2023-02-15T01:06:10;3.30;63.10
27114;DHT22;14648;49.730;8.614;2023-02-15T01:08:36;3.30;63.10
27114;DHT22;14648;49.730;8.614;2023-02-15T01:11:05;3.30;63.10
27114;DHT22;14648;49.730;8.614;2023-02-15T01:13:32;3.30;63.10
27114;DHT22;14648;49.730;8.614;2023-02-15T01:15:58;3.30;63.00
27114;DHT22;14648;49.730;8.614;2023-02-15T01:18:24;3.20;63.00
27114;DHT22;14648;49.730;8.614;2023-02-15T01:20:53;3.20;63.20
27114;DHT22;14648;49.730;8.614;2023-02-15T01:23:19;3.20;63.20
27114;DHT22;14648;49.730;8.614;2023-02-15T01:25:45;3.20;63.20
27114;DHT22;14648;49.730;8.614;2023-02-15T01:28:11;3.10;63.30
27114;DHT22;14648;49.730;8.614;2023-02-15T01:30:37;3.10;63.20
27114;DHT22;14648;49.730;8.614;2023-02-15T01:33:05;3.10;63.50
27114;DHT22;14648;49.730;8.614;2023-02-15T01:35:31;3.00;63.60
27114;DHT22;14648;49.730;8.614;2023-02-15T01:37:59;3.00;63.40
27114;DHT22;14648;49.730;8.614;2023-02-15T01:40:25;3.00;63.50
27114;DHT22;14648;49.730;8.614;2023-02-15T01:42:53;3.00;63.60
27114;DHT22;14648;49.730;8.614;2023-02-15T01:45:31;3.00;63.60
27114;DHT22;14648;49.730;8.614;2023-02-15T01:48:05;3.00;63.50
27114;DHT22;14648;49.730;8.614;2023-02-15T01:50:37;3.00;63.40
27114;DHT22;14648;49.730;8.614;2023-02-15T01:53:27;2.90;63.40
27114;DHT22;14648;49.730;8.614;2023-02-15T01:56:01;2.90;63.30
27114;DHT22;14648;49.730;8.614;2023-02-15T01:58:30;2.90;63.30
27114;DHT22;14648;49.730;8.614;2023-02-15T02:00:59;2.90;63.40
27114;DHT22;14648;49.730;8.614;2023-02-15T02:06:17;2.90;63.30
27114;DHT22;14648;49.730;8.614;2023-02-15T02:08:43;2.90;63.30
27114;DHT22;14648;49.730;8.614;2023-02-15T02:11:11;2.90;63.40
27114;DHT22;14648;49.730;8.614;2023-02-15T02:13:39;2.90;63.30
27114;DHT22;14648;49.730;8.614;2023-02-15T02:16:16;2.90;63.40
27114;DHT22;14648;49.730;8.614;2023-02-15T02:18:58;2.80;63.50
27114;DHT22;14648;49.730;8.614;2023-02-15T02:27:50;2.80;63.20
27114;DHT22;14648;49.730;8.614;2023-02-15T02:33:54;2.80;63.30
27114;DHT22;14648;49.730;8.614;2023-02-15T02:42:02;2.80;63.40
27114;DHT22;14648;49.730;8.614;2023-02-15T02:47:21;2.80;63.30
27114;DHT22;14648;49.730;8.614;2023-02-15T02:49:52;2.80;63.30
27114;DHT22;14648;49.730;8.614;2023-02-15T02:52:38;2.80;63.40
27114;DHT22;14648;49.730;8.614;2023-02-15T02:58:31;2.80;63.30
27114;DHT22;14648;49.730;8.614;2023-02-15T03:01:18;2.90;63.40
27114;DHT22;14648;49.730;8.614;2023-02-15T03:03:51;2.80;63.20
27114;DHT22;14648;49.730;8.614;2023-02-15T03:06:24;2.80;63.20
27114;DHT22;14648;49.730;8.614;2023-02-15T03:09:00;2.70;63.50
27114;DHT22;14648;49.730;8.614;2023-02-15T03:11:29;2.80;63.80
27114;DHT22;14648;49.730;8.614;2023-02-15T03:13:55;2.80;63.80
27114;DHT22;14648;49.730;8.614;2023-02-15T03:16:21;2.80;63.80
27114;DHT22;14648;49.730;8.614;2023-02-15T03:19:10;2.80;63.90
27114;DHT22;14648;49.730;8.614;2023-02-15T03:21:50;2.80;63.90
27114;DHT22;14648;49.730;8.614;2023-02-15T03:24:26;2.80;63.80
27114;DHT22;14648;49.730;8.614;2023-02-15T03:26:55;2.80;63.90
27114;DHT22;14648;49.730;8.614;2023-02-15T03:29:24;2.80;63.90
27114;DHT22;14648;49.730;8.614;2023-02-15T03:32:00;2.80;64.00
27114;DHT22;14648;49.730;8.614;2023-02-15T03:34:28;2.80;64.10
27114;DHT22;14648;49.730;8.614;2023-02-15T03:37:09;2.80;64.90
27114;DHT22;14648;49.730;8.614;2023-02-15T03:39:47;2.70;64.20
27114;DHT22;14648;49.730;8.614;2023-02-15T03:42:22;2.70;64.00
27114;DHT22;14648;49.730;8.614;2023-02-15T03:44:58;2.70;64.10
27114;DHT22;14648;49.730;8.614;2023-02-15T03:47:33;2.70;64.30
27114;DHT22;14648;49.730;8.614;2023-02-15T03:50:05;2.60;64.30
27114;DHT22;14648;49.730;8.614;2023-02-15T03:52:55;2.60;64.40
27114;DHT22;14648;49.730;8.614;2023-02-15T03:55:23;2.50;64.60
27114;DHT22;14648;49.730;8.614;2023-02-15T03:57:49;2.50;64.70
27114;DHT22;14648;49.730;8.614;2023-02-15T04:00:37;2.50;64.70
27114;DHT22;14648;49.730;8.614;2023-02-15T04:03:35;2.50;64.70
27114;DHT22;14648;49.730;8.614;2023-02-15T04:06:06;2.50;64.80
27114;DHT22;14648;49.730;8.614;2023-02-15T04:08:32;2.50;64.70
27114;DHT22;14648;49.730;8.614;2023-02-15T04:11:16;2.50;64.80
27114;DHT22;14648;49.730;8.614;2023-02-15T04:13:42;2.50;64.60
27114;DHT22;14648;49.730;8.614;2023-02-15T04:16:08;2.50;64.70
27114;DHT22;14648;49.730;8.614;2023-02-15T04:18:40;2.40;64.70
27114;DHT22;14648;49.730;8.614;2023-02-15T04:21:27;2.40;64.80
27114;DHT22;14648;49.730;8.614;2023-02-15T04:24:14;2.40;64.90
27114;DHT22;14648;49.730;8.614;2023-02-15T04:26:59;2.50;64.80
27114;DHT22;14648;49.730;8.614;2023-02-15T04:29:26;2.40;64.60
27114;DHT22;14648;49.730;8.614;2023-02-15T04:31:56;2.40;64.70
27114;DHT22;14648;49.730;8.614;2023-02-15T04:34:25;2.50;65.00
27114;DHT22;14648;49.730;8.614;2023-02-15T04:36:51;2.40;64.80
27114;DHT22;14648;49.730;8.614;2023-02-15T04:39:17;2.40;64.80
27114;DHT22;14648;49.730;8.614;2023-02-15T04:41:44;2.40;64.90
27114;DHT22;14648;49.730;8.614;2023-02-15T04:44:10;2.40;64.80
27114;DHT22;14648;49.730;8.614;2023-02-15T04:46:36;2.40;65.00
27114;DHT22;14648;49.730;8.614;2023-02-15T04:49:02;2.40;64.80
27114;DHT22;14648;49.730;8.614;2023-02-15T04:51:28;2.30;65.10
27114;DHT22;14648;49.730;8.614;2023-02-15T04:53:54;2.30;65.20
27114;DHT22;14648;49.730;8.614;2023-02-15T04:56:20;2.30;65.10
27114;DHT22;14648;49.730;8.614;2023-02-15T04:58:46;2.30;65.00
27114;DHT22;14648;49.730;8.614;2023-02-15T05:01:12;2.20;65.00
27114;DHT22;14648;49.730;8.614;2023-02-15T05:03:38;2.20;65.20
27114;DHT22;14648;49.730;8.614;2023-02-15T05:06:04;2.20;64.90
27114;DHT22;14648;49.730;8.614;2023-02-15T05:08:30;2.20;65.00
27114;DHT22;14648;49.730;8.614;2023-02-15T05:10:56;2.10;65.10
27114;DHT22;14648;49.730;8.614;2023-02-15T05:13:23;2.10;65.30
27114;DHT22;14648;49.730;8.614;2023-02-15T05:15:50;2.10;65.30
27114;DHT22;14648;49.730;8.614;2023-02-15T05:18:18;2.10;65.40
27114;DHT22;14648;49.730;8.614;2023-02-15T05:20:45;2.20;65.30
27114;DHT22;14648;49.730;8.614;2023-02-15T05:23:11;2.20;65.10
27114;DHT22;14648;49.730;8.614;2023-02-15T05:25:37;2.30;65.20
27114;DHT22;14648;49.730;8.614;2023-02-15T05:28:23;2.30;65.20
27114;DHT22;14648;49.730;8.614;2023-02-15T05:30:56;2.40;65.00
27114;DHT22;14648;49.730;8.614;2023-02-15T05:33:35;2.40;64.90
27114;DHT22;14648;49.730;8.614;2023-02-15T05:36:01;2.40;65.00
27114;DHT22;14648;49.730;8.614;2023-02-15T05:38:28;2.40;65.00
27114;DHT22;14648;49.730;8.614;2023-02-15T05:40:54;2.50;65.00
27114;DHT22;14648;49.730;8.614;2023-02-15T05:43:20;2.50;65.00
27114;DHT22;14648;49.730;8.614;2023-02-15T05:45:52;2.60;65.00
27114;DHT22;14648;49.730;8.614;2023-02-15T05:48:20;2.70;65.00
27114;DHT22;14648;49.730;8.614;2023-02-15T05:51:03;2.70;65.00
27114;DHT22;14648;49.730;8.614;2023-02-15T05:53:34;2.70;65.10
27114;DHT22;14648;49.730;8.614;2023-02-15T05:56:02;2.70;64.80
27114;DHT22;14648;49.730;8.614;2023-02-15T05:58:34;2.60;64.80
27114;DHT22;14648;49.730;8.614;2023-02-15T06:01:13;2.50;65.20
27114;DHT22;14648;49.730;8.614;2023-02-15T06:03:40;2.50;65.30
27114;DHT22;14648;49.730;8.614;2023-02-15T06:06:07;2.50;65.40
27114;DHT22;14648;49.730;8.614;2023-02-15T06:08:37;2.50;65.50
27114;DHT22;14648;49.730;8.614;2023-02-15T06:11:04;2.40;65.30
27114;DHT22;14648;49.730;8.614;2023-02-15T06:13:31;2.40;65.40
27114;DHT22;14648;49.730;8.614;2023-02-15T06:15:57;2.40;65.40
27114;DHT22;14648;49.730;8.614;2023-02-15T06:18:23;2.40;65.50
27114;DHT22;14648;49.730;8.614;2023-02-15T06:20:49;2.40;65.60
27114;DHT22;14648;49.730;8.614;2023-02-15T06:23:15;2.30;65.60
27114;DHT22;14648;49.730;8.614;2023-02-15T06:25:41;2.40;65.70
27114;DHT22;14648;49.730;8.614;2023-02-15T06:28:07;2.30;65.60
27114;DHT22;14648;49.730;8.614;2023-02-15T06:30:32;2.40;65.60
27114;DHT22;14648;49.730;8.614;2023-02-15T06:32:58;2.40;65.70
27114;DHT22;14648;49.730;8.614;2023-02-15T06:35:24;2.40;65.70
27114;DHT22;14648;49.730;8.614;2023-02-15T06:37:50;2.40;65.70
27114;DHT22;14648;49.730;8.614;2023-02-15T06:40:16;2.40;65.60
27114;DHT22;14648;49.730;8.614;2023-02-15T06:42:46;2.40;65.80
27114;DHT22;14648;49.730;8.614;2023-02-15T06:45:14;2.40;65.80
27114;DHT22;14648;49.730;8.614;2023-02-15T06:47:39;2.40;65.90
27114;DHT22;14648;49.730;8.614;2023-02-15T06:50:06;2.50;65.90
27114;DHT22;14648;49.730;8.614;2023-02-15T06:52:33;2.50;65.90
27114;DHT22;14648;49.730;8.614;2023-02-15T06:54:59;2.50;65.90
27114;DHT22;14648;49.730;8.614;2023-02-15T06:57:26;2.50;65.90
27114;DHT22;14648;49.730;8.614;2023-02-15T06:59:52;2.50;66.10
27114;DHT22;14648;49.730;8.614;2023-02-15T07:02:19;2.50;65.90
27114;DHT22;14648;49.730;8.614;2023-02-15T07:04:46;2.50;66.10
27114;DHT22;14648;49.730;8.614;2023-02-15T07:07:11;2.50;66.20
27114;DHT22;14648;49.730;8.614;2023-02-15T07:09:39;2.50;66.20
27114;DHT22;14648;49.730;8.614;2023-02-15T07:12:05;2.60;66.20
27114;DHT22;14648;49.730;8.614;2023-02-15T07:14:52;2.60;66.20
27114;DHT22;14648;49.730;8.614;2023-02-15T07:17:17;2.60;66.10
27114;DHT22;14648;49.730;8.614;2023-02-15T07:19:43;2.60;66.10
27114;DHT22;14648;49.730;8.614;2023-02-15T07:22:09;2.60;66.20
27114;DHT22;14648;49.730;8.614;2023-02-15T07:24:35;2.60;66.30
27114;DHT22;14648;49.730;8.614;2023-02-15T07:27:00;2.60;66.30
27114;DHT22;14648;49.730;8.614;2023-02-15T07:29:27;2.70;66.50
27114;DHT22;14648;49.730;8.614;2023-02-15T07:31:55;2.70;66.30
27114;DHT22;14648;49.730;8.614;2023-02-15T07:34:21;2.70;66.40
27114;DHT22;14648;49.730;8.614;2023-02-15T07:36:47;2.60;66.10
27114;DHT22;14648;49.730;8.614;2023-02-15T07:39:16;2.60;67.00
27114;DHT22;14648;49.730;8.614;2023-02-15T07:41:44;2.60;66.60
27114;DHT22;14648;49.730;8.614;2023-02-15T07:44:14;2.70;66.70
27114;DHT22;14648;49.730;8.614;2023-02-15T07:46:40;2.70;66.60
27114;DHT22;14648;49.730;8.614;2023-02-15T07:49:06;2.70;66.40
27114;DHT22;14648;49.730;8.614;2023-02-15T07:51:32;2.70;66.50
27114;DHT22;14648;49.730;8.614;2023-02-15T07:53:58;2.70;66.50
27114;DHT22;14648;49.730;8.614;2023-02-15T07:56:23;2.70;66.60
27114;DHT22;14648;49.730;8.614;2023-02-15T07:58:49;2.70;66.70
27114;DHT22;14648;49.730;8.614;2023-02-15T08:01:22;2.70;66.60
27114;DHT22;14648;49.730;8.614;2023-02-15T08:03:53;2.70;66.70
27114;DHT22;14648;49.730;8.614;2023-02-15T08:06:20;2.70;66.60
27114;DHT22;14648;49.730;8.614;2023-02-15T08:08:48;2.70;66.90
27114;DHT22;14648;49.730;8.614;2023-02-15T08:11:27;2.70;66.80
27114;DHT22;14648;49.730;8.614;2023-02-15T08:16:35;2.70;66.70
27114;DHT22;14648;49.730;8.614;2023-02-15T08:19:09;2.70;66.70
27114;DHT22;14648;49.730;8.614;2023-02-15T08:21:39;2.60;66.60
27114;DHT22;14648;49.730;8.614;2023-02-15T08:24:12;2.60;66.90
27114;DHT22;14648;49.730;8.614;2023-02-15T08:26:40;2.70;67.00
27114;DHT22;14648;49.730;8.614;2023-02-15T08:29:10;2.70;66.90
27114;DHT22;14648;49.730;8.614;2023-02-15T08:31:37;2.80;66.80
27114;DHT22;14648;49.730;8.614;2023-02-15T08:34:03;2.80;66.80
27114;DHT22;14648;49.730;8.614;2023-02-15T08:36:30;2.70;66.90
27114;DHT22;14648;49.730;8.614;2023-02-15T08:39:02;2.80;67.00
27114;DHT22;14648;49.730;8.614;2023-02-15T08:41:36;2.80;67.10
27114;DHT22;14648;49.730;8.614;2023-02-15T08:44:05;2.90;67.00
27114;DHT22;14648;49.730;8.614;2023-02-15T08:46:35;2.90;67.00
27114;DHT22;14648;49.730;8.614;2023-02-15T08:49:03;2.90;67.10
27114;DHT22;14648;49.730;8.614;2023-02-15T08:51:36;3.00;67.10
27114;DHT22;14648;49.730;8.614;2023-02-15T08:54:05;3.00;66.80
27114;DHT22;14648;49.730;8.614;2023-02-15T08:56:37;2.90;66.80
27114;DHT22;14648;49.730;8.614;2023-02-15T08:59:06;2.90;67.00
27114;DHT22;14648;49.730;8.614;2023-02-15T09:01:34;2.90;67.10
27114;DHT22;14648;49.730;8.614;2023-02-15T09:04:02;3.00;67.80
27114;DHT22;14648;49.730;8.614;2023-02-15T09:06:30;3.00;67.00
27114;DHT22;14648;49.730;8.614;2023-02-15T09:08:57;3.00;67.10
27114;DHT22;14648;49.730;8.614;2023-02-15T09:11:27;3.00;67.20
27114;DHT22;14648;49.730;8.614;2023-02-15T09:14:02;3.00;67.10
27114;DHT22;14648;49.730;8.614;2023-02-15T09:16:32;3.00;67.20
27114;DHT22;14648;49.730;8.614;2023-02-15T09:19:00;3.10;67.30
27114;DHT22;14648;49.730;8.614;2023-02-15T09:21:27;3.10;67.30
27114;DHT22;14648;49.730;8.614;2023-02-15T09:24:03;3.10;67.10
27114;DHT22;14648;49.730;8.614;2023-02-15T09:26:43;3.20;66.90
27114;DHT22;14648;49.730;8.614;2023-02-15T09:29:14;3.20;67.00
27114;DHT22;14648;49.730;8.614;2023-02-15T09:31:42;3.20;67.30
27114;DHT22;14648;49.730;8.614;2023-02-15T09:34:11;3.20;67.30
27114;DHT22;14648;49.730;8.614;2023-02-15T09:36:39;3.20;67.20
27114;DHT22;14648;49.730;8.614;2023-02-15T09:48:40;3.20;67.10
27114;DHT22;14648;49.730;8.614;2023-02-15T09:54:38;3.20;67.40
27114;DHT22;14648;49.730;8.614;2023-02-15T10:09:08;3.50;67.20
27114;DHT22;14648;49.730;8.614;2023-02-15T10:18:12;3.50;67.50
27114;DHT22;14648;49.730;8.614;2023-02-15T10:21:22;3.50;67.40
27114;DHT22;14648;49.730;8.614;2023-02-15T10:26:52;3.70;67.60
27114;DHT22;14648;49.730;8.614;2023-02-15T10:29:36;3.70;67.30
27114;DHT22;14648;49.730;8.614;2023-02-15T10:32:25;3.70;67.30
27114;DHT22;14648;49.730;8.614;2023-02-15T10:35:02;3.80;67.40
27114;DHT22;14648;49.730;8.614;2023-02-15T10:38:00;3.80;67.30
27114;DHT22;14648;49.730;8.614;2023-02-15T10:41:17;3.80;67.40
27114;DHT22;14648;49.730;8.614;2023-02-15T10:44:29;3.90;67.50
27114;DHT22;14648;49.730;8.614;2023-02-15T10:59:18;3.90;67.20
27114;DHT22;14648;49.730;8.614;2023-02-15T11:02:20;3.80;67.20
27114;DHT22;14648;49.730;8.614;2023-02-15T11:05:30;3.90;67.50
27114;DHT22;14648;49.730;8.614;2023-02-15T11:08:09;3.90;67.50
27114;DHT22;14648;49.730;8.614;2023-02-15T11:10:48;3.90;67.20
27114;DHT22;14648;49.730;8.614;2023-02-15T11:13:19;3.90;67.50
27114;DHT22;14648;49.730;8.614;2023-02-15T11:15:56;3.90;67.50
27114;DHT22;14648;49.730;8.614;2023-02-15T11:18:45;4.00;67.30
27114;DHT22;14648;49.730;8.614;2023-02-15T11:21:22;4.00;67.50
27114;DHT22;14648;49.730;8.614;2023-02-15T11:23:51;4.00;67.40
27114;DHT22;14648;49.730;8.614;2023-02-15T11:26:36;4.00;67.50
27114;DHT22;14648;49.730;8.614;2023-02-15T11:29:15;4.00;67.60
27114;DHT22;14648;49.730;8.614;2023-02-15T11:32:17;4.10;68.00
27114;DHT22;14648;49.730;8.614;2023-02-15T11:34:58;4.20;67.80
27114;DHT22;14648;49.730;8.614;2023-02-15T11:37:35;4.20;67.70
27114;DHT22;14648;49.730;8.614;2023-02-15T11:40:15;4.30;67.80
27114;DHT22;14648;49.730;8.614;2023-02-15T11:42:47;4.40;67.60
27114;DHT22;14648;49.730;8.614;2023-02-15T11:45:26;4.40;67.60
27114;DHT22;14648;49.730;8.614;2023-02-15T11:47:57;4.40;67.30
27114;DHT22;14648;49.730;8.614;2023-02-15T11:50:26;4.30;67.60
27114;DHT22;14648;49.730;8.614;2023-02-15T11:52:59;4.40;67.90
27114;DHT22;14648;49.730;8.614;2023-02-15T11:55:28;4.40;67.90
27114;DHT22;14648;49.730;8.614;2023-02-15T11:58:13;4.40;67.80
27114;DHT22;14648;49.730;8.614;2023-02-15T12:00:52;4.40;67.90
27114;DHT22;14648;49.730;8.614;2023-02-15T12:03:47;4.50;67.80
27114;DHT22;14648;49.730;8.614;2023-02-15T12:06:27;4.50;67.80
27114;DHT22;14648;49.730;8.614;2023-02-15T12:09:17;4.50;67.60
27114;DHT22;14648;49.730;8.614;2023-02-15T12:11:45;4.50;67.50
27114;DHT22;14648;49.730;8.614;2023-02-15T12:14:13;4.50;67.60
27114;DHT22;14648;49.730;8.614;2023-02-15T12:21:49;4.60;67.70
27114;DHT22;14648;49.730;8.614;2023-02-15T12:24:32;4.60;67.70
27114;DHT22;14648;49.730;8.614;2023-02-15T12:27:02;4.60;67.80
27114;DHT22;14648;49.730;8.614;2023-02-15T12:29:42;4.70;67.80
27114;DHT22;14648;49.730;8.614;2023-02-15T12:32:23;4.80;67.80
27114;DHT22;14648;49.730;8.614;2023-02-15T12:34:55;4.80;67.40
27114;DHT22;14648;49.730;8.614;2023-02-15T12:37:28;4.80;67.50
27114;DHT22;14648;49.730;8.614;2023-02-15T12:40:03;4.90;67.50
27114;DHT22;14648;49.730;8.614;2023-02-15T12:42:45;4.90;67.70
27114;DHT22;14648;49.730;8.614;2023-02-15T12:45:25;4.80;67.50
27114;DHT22;14648;49.730;8.614;2023-02-15T12:48:16;4.90;68.70
27114;DHT22;14648;49.730;8.614;2023-02-15T12:50:51;5.00;67.60
27114;DHT22;14648;49.730;8.614;2023-02-15T12:53:38;5.10;67.80
27114;DHT22;14648;49.730;8.614;2023-02-15T12:56:09;5.20;67.60
27114;DHT22;14648;49.730;8.614;2023-02-15T12:58:38;5.20;67.50
27114;DHT22;14648;49.730;8.614;2023-02-15T13:01:19;5.30;67.60
27114;DHT22;14648;49.730;8.614;2023-02-15T13:04:03;5.30;67.40
27114;DHT22;14648;49.730;8.614;2023-02-15T13:06:33;5.30;67.30
27114;DHT22;14648;49.730;8.614;2023-02-15T13:12:17;5.40;67.30
27114;DHT22;14648;49.730;8.614;2023-02-15T13:14:48;5.50;67.10
27114;DHT22;14648;49.730;8.614;2023-02-15T13:17:30;5.50;67.20
27114;DHT22;14648;49.730;8.614;2023-02-15T13:20:06;5.60;67.20
27114;DHT22;14648;49.730;8.614;2023-02-15T13:22:45;5.60;67.00
27114;DHT22;14648;49.730;8.614;2023-02-15T13:25:22;5.70;67.20
27114;DHT22;14648;49.730;8.614;2023-02-15T13:27:56;5.70;66.80
27114;DHT22;14648;49.730;8.614;2023-02-15T13:30:27;5.70;66.80
27114;DHT22;14648;49.730;8.614;2023-02-15T13:33:25;5.80;66.70
27114;DHT22;14648;49.730;8.614;2023-02-15T13:39:09;5.80;66.80
27114;DHT22;14648;49.730;8.614;2023-02-15T13:42:01;5.80;66.60
27114;DHT22;14648;49.730;8.614;2023-02-15T13:56:46;5.80;66.30
27114;DHT22;14648;49.730;8.614;2023-02-15T14:02:43;5.80;65.90
27114;DHT22;14648;49.730;8.614;2023-02-15T14:05:36;5.70;65.90
27114;DHT22;14648;49.730;8.614;2023-02-15T14:08:45;5.80;66.00
27114;DHT22;14648;49.730;8.614;2023-02-15T14:17:38;5.90;65.80
27114;DHT22;14648;49.730;8.614;2023-02-15T14:20:39;5.90;65.70
27114;DHT22;14648;49.730;8.614;2023-02-15T14:26:10;5.90;65.40
27114;DHT22;14648;49.730;8.614;2023-02-15T14:31:18;5.80;65.50
27114;DHT22;14648;49.730;8.614;2023-02-15T14:33:56;5.80;65.60
27114;DHT22;14648;49.730;8.614;2023-02-15T14:36:23;5.70;65.60
27114;DHT22;14648;49.730;8.614;2023-02-15T14:42:22;5.80;65.50
27114;DHT22;14648;49.730;8.614;2023-02-15T14:47:42;5.80;65.00
27114;DHT22;14648;49.730;8.614;2023-02-15T14:53:33;5.70;65.20
27114;DHT22;14648;49.730;8.614;2023-02-15T14:56:15;5.70;65.10
27114;DHT22;14648;49.730;8.614;2023-02-15T15:01:35;5.70;65.00
27114;DHT22;14648;49.730;8.614;2023-02-15T15:07:21;5.60;64.60
27114;DHT22;14648;49.730;8.614;2023-02-15T15:12:52;5.50;64.90
27114;DHT22;14648;49.730;8.614;2023-02-15T15:17:56;5.50;64.70
27114;DHT22;14648;49.730;8.614;2023-02-15T15:20:47;5.50;64.70
27114;DHT22;14648;49.730;8.614;2023-02-15T15:25:44;5.40;64.60
27114;DHT22;14648;49.730;8.614;2023-02-15T15:40:00;5.40;64.40
27114;DHT22;14648;49.730;8.614;2023-02-15T15:46:34;5.40;64.30
27114;DHT22;14648;49.730;8.614;2023-02-15T15:49:19;5.40;64.20
27114;DHT22;14648;49.730;8.614;2023-02-15T15:51:46;5.30;64.30
27114;DHT22;14648;49.730;8.614;2023-02-15T15:54:16;5.30;64.30
27114;DHT22;14648;49.730;8.614;2023-02-15T15:56:57;5.30;64.30
27114;DHT22;14648;49.730;8.614;2023-02-15T15:59:28;5.30;64.40
27114;DHT22;14648;49.730;8.614;2023-02-15T16:01:56;5.30;64.30
27114;DHT22;14648;49.730;8.614;2023-02-15T16:04:31;5.30;64.30
27114;DHT22;14648;49.730;8.614;2023-02-15T16:09:57;5.20;64.30
27114;DHT22;14648;49.730;8.614;2023-02-15T16:12:28;5.20;64.30
27114;DHT22;14648;49.730;8.614;2023-02-15T16:14:57;5.20;64.30
27114;DHT22;14648;49.730;8.614;2023-02-15T16:17:28;5.10;64.40
27114;DHT22;14648;49.730;8.614;2023-02-15T16:20:11;5.10;64.50
27114;DHT22;14648;49.730;8.614;2023-02-15T16:22:46;5.10;64.50
27114;DHT22;14648;49.730;8.614;2023-02-15T16:28:26;5.10;64.40
27114;DHT22;14648;49.730;8.614;2023-02-15T16:31:14;5.00;64.20
27114;DHT22;14648;49.730;8.614;2023-02-15T16:33:46;4.90;64.30
27114;DHT22;14648;49.730;8.614;2023-02-15T16:36:23;4.90;64.30
27114;DHT22;14648;49.730;8.614;2023-02-15T16:41:37;4.90;64.30
27114;DHT22;14648;49.730;8.614;2023-02-15T16:44:11;4.90;64.30
27114;DHT22;14648;49.730;8.614;2023-02-15T16:46:43;4.80;64.30
27114;DHT22;14648;49.730;8.614;2023-02-15T16:49:22;4.80;64.20
27114;DHT22;14648;49.730;8.614;2023-02-15T16:51:58;4.80;64.20
27114;DHT22;14648;49.730;8.614;2023-02-15T16:54:27;4.80;64.30
27114;DHT22;14648;49.730;8.614;2023-02-15T16:56:55;4.80;64.30
27114;DHT22;14648;49.730;8.614;2023-02-15T17:02:17;4.80;64.30
27114;DHT22;14648;49.730;8.614;2023-02-15T17:07:40;4.70;64.40
27114;DHT22;14648;49.730;8.614;2023-02-15T17:12:59;4.60;64.50
27114;DHT22;14648;49.730;8.614;2023-02-15T17:15:39;4.50;64.60
27114;DHT22;14648;49.730;8.614;2023-02-15T17:20:54;4.40;64.70
27114;DHT22;14648;49.730;8.614;2023-02-15T17:23:35;4.30;64.70
27114;DHT22;14648;49.730;8.614;2023-02-15T17:26:19;4.30;64.90
27114;DHT22;14648;49.730;8.614;2023-02-15T17:28:54;4.30;65.00
27114;DHT22;14648;49.730;8.614;2023-02-15T17:31:27;4.40;64.80
27114;DHT22;14648;49.730;8.614;2023-02-15T17:33:59;4.40;64.80
27114;DHT22;14648;49.730;8.614;2023-02-15T17:36:30;4.40;64.70
27114;DHT22;14648;49.730;8.614;2023-02-15T17:39:19;4.40;64.80
27114;DHT22;14648;49.730;8.614;2023-02-15T17:41:47;4.40;64.80
27114;DHT22;14648;49.730;8.614;2023-02-15T17:44:14;4.40;64.80
27114;DHT22;14648;49.730;8.614;2023-02-15T17:46:41;4.40;64.90
27114;DHT22;14648;49.730;8.614;2023-02-15T17:49:18;4.40;65.00
27114;DHT22;14648;49.730;8.614;2023-02-15T17:51:50;4.30;65.00
27114;DHT22;14648;49.730;8.614;2023-02-15T17:54:16;4.30;65.00
27114;DHT22;14648;49.730;8.614;2023-02-15T17:56:59;4.30;65.10
27114;DHT22;14648;49.730;8.614;2023-02-15T17:59:30;4.30;65.20
27114;DHT22;14648;49.730;8.614;2023-02-15T18:01:56;4.20;65.10
27114;DHT22;14648;49.730;8.614;2023-02-15T18:04:40;4.30;65.20
27114;DHT22;14648;49.730;8.614;2023-02-15T18:07:25;4.20;65.20
27114;DHT22;14648;49.730;8.614;2023-02-15T18:10:15;4.20;65.30
27114;DHT22;14648;49.730;8.614;2023-02-15T18:13:01;4.20;65.40
27114;DHT22;14648;49.730;8.614;2023-02-15T18:15:27;4.20;65.30
27114;DHT22;14648;49.730;8.614;2023-02-15T18:17:53;4.20;65.40
27114;DHT22;14648;49.730;8.614;2023-02-15T18:20:22;4.20;65.50
27114;DHT22;14648;49.730;8.614;2023-02-15T18:22:51;4.20;65.60
27114;DHT22;14648;49.730;8.614;2023-02-15T18:25:19;4.30;65.60
27114;DHT22;14648;49.730;8.614;2023-02-15T18:27:48;4.30;65.60
27114;DHT22;14648;49.730;8.614;2023-02-15T18:30:16;4.30;65.60
27114;DHT22;14648;49.730;8.614;2023-02-15T18:32:44;4.30;65.70
27114;DHT22;14648;49.730;8.614;2023-02-15T18:35:21;4.30;65.70
27114;DHT22;14648;49.730;8.614;2023-02-15T18:37:51;4.30;65.80
27114;DHT22;14648;49.730;8.614;2023-02-15T18:40:19;4.30;65.70
27114;DHT22;14648;49.730;8.614;2023-02-15T18:42:47;4.30;65.80
27114;DHT22;14648;49.730;8.614;2023-02-15T18:45:18;4.40;65.60
27114;DHT22;14648;49.730;8.614;2023-02-15T18:47:49;4.40;65.50
27114;DHT22;14648;49.730;8.614;2023-02-15T18:50:17;4.30;65.60
27114;DHT22;14648;49.730;8.614;2023-02-15T18:52:46;4.30;65.80
27114;DHT22;14648;49.730;8.614;2023-02-15T18:55:24;4.20;65.90
27114;DHT22;14648;49.730;8.614;2023-02-15T18:57:54;4.20;66.00
27114;DHT22;14648;49.730;8.614;2023-02-15T19:00:23;4.20;66.00
27114;DHT22;14648;49.730;8.614;2023-02-15T19:02:54;4.10;66.00
27114;DHT22;14648;49.730;8.614;2023-02-15T19:05:21;4.10;65.90
27114;DHT22;14648;49.730;8.614;2023-02-15T19:07:48;4.10;65.90
27114;DHT22;14648;49.730;8.614;2023-02-15T19:10:22;4.10;65.90
27114;DHT22;14648;49.730;8.614;2023-02-15T19:12:50;4.00;65.80